Time;durP1;ratioP1;P1;durP2;ratioP2;P2;SDS_P1;SDS_P2;PMS_P1;PMS_P2;Temp;Humidity;BMP_temperature;BMP_pressure;BME280_temperature;BME280_humidity;BME280_pressure;Samples;Min_cycle;Max_cycle;Signal;HPM_P1;HPM_P2
2022/04/07 00:01:04;;;;;;;2.08;1.63;;;;;;;9.92;nan;99416.81;4985147;28;20030;-46
2022/04/07 00:03:30;;;;;;;3.00;1.80;;;;;;;9.91;nan;99417.91;4987661;28;20037;-46
2022/04/07 00:05:56;;;;;;;2.90;1.50;;;;;;;9.90;nan;99418.19;4986421;28;20083;-46
2022/04/07 00:08:21;;;;;;;3.17;1.70;;;;;;;9.88;nan;99413.09;4985513;28;20057;-45
2022/04/07 00:10:48;;;;;;;4.78;1.83;;;;;;;9.87;nan;99408.81;4988719;28;20476;-46
2022/04/07 00:13:14;;;;;;;3.78;1.80;;;;;;;9.86;nan;99407.22;4984409;28;20034;-46
2022/04/07 00:15:40;;;;;;;1.52;1.30;;;;;;;9.87;nan;99405.34;4983452;28;20089;-46
2022/04/07 00:18:06;;;;;;;2.97;1.85;;;;;;;9.87;nan;99397.31;4985610;28;20084;-46
2022/04/07 00:20:33;;;;;;;3.95;1.52;;;;;;;9.85;nan;99394.91;4983383;28;20300;-46
2022/04/07 00:22:58;;;;;;;2.28;1.35;;;;;;;9.85;nan;99397.59;4988497;28;20257;-46
2022/04/07 00:25:25;;;;;;;4.25;1.83;;;;;;;9.84;nan;99393.31;4986462;28;20627;-46
2022/04/07 00:27:51;;;;;;;4.43;2.92;;;;;;;9.85;nan;99388.75;4984515;28;20037;-46
2022/04/07 00:30:20;;;;;;;6.53;1.88;;;;;;;9.86;nan;99390.34;4986911;28;20041;-46
2022/04/07 00:32:46;;;;;;;4.43;2.33;;;;;;;9.82;nan;99382.09;4982596;28;20026;-46
2022/04/07 00:35:11;;;;;;;4.07;1.83;;;;;;;9.81;nan;99377.81;4987739;28;20026;-46
2022/04/07 00:37:38;;;;;;;4.55;1.75;;;;;;;9.78;nan;99378.38;4988237;28;20036;-45
2022/04/07 00:40:06;;;;;;;4.00;1.83;;;;;;;9.73;nan;99373.06;4984546;28;20045;-46
2022/04/07 00:42:31;;;;;;;2.63;1.75;;;;;;;9.72;nan;99370.66;4985845;28;20030;-46
2022/04/07 00:44:57;;;;;;;4.35;1.80;;;;;;;9.70;nan;99357.56;4986621;28;20080;-45
2022/04/07 00:47:24;;;;;;;3.05;1.50;;;;;;;9.67;nan;99355.41;4985496;28;20242;-46
2022/04/07 00:49:49;;;;;;;3.10;1.92;;;;;;;9.63;nan;99355.19;4984921;28;20428;-46
2022/04/07 00:52:18;;;;;;;2.38;1.30;;;;;;;9.61;nan;99343.16;4987259;28;20080;-46
2022/04/07 00:54:43;;;;;;;4.18;1.77;;;;;;;9.59;nan;99350.66;4990334;28;20038;-45
2022/04/07 00:57:10;;;;;;;4.47;1.65;;;;;;;9.56;nan;99337.84;4987304;28;20022;-46
2022/04/07 00:59:35;;;;;;;4.13;1.98;;;;;;;9.53;nan;99328.50;4987167;28;20129;-46
2022/04/07 01:02:01;;;;;;;3.38;1.75;;;;;;;9.50;nan;99322.88;4991471;28;20097;-46
2022/04/07 01:04:27;;;;;;;7.93;2.05;;;;;;;9.46;nan;99321.84;4986899;28;20117;-46
2022/04/07 01:06:52;;;;;;;4.55;1.70;;;;;;;9.45;nan;99318.38;4987718;28;20033;-45
2022/04/07 01:09:19;;;;;;;4.45;2.05;;;;;;;9.41;nan;99313.84;4985530;28;20590;-47
2022/04/07 01:11:46;;;;;;;4.65;1.67;;;;;;;9.39;nan;99314.13;4990194;28;20034;-46
2022/04/07 01:14:11;;;;;;;4.60;1.67;;;;;;;9.35;nan;99310.41;4985231;28;20030;-46
2022/04/07 01:16:37;;;;;;;2.70;1.50;;;;;;;9.34;nan;99306.94;4984570;28;20054;-46
2022/04/07 01:19:03;;;;;;;4.57;2.10;;;;;;;9.32;nan;99305.59;4984339;28;20033;-47
2022/04/07 01:21:32;;;;;;;2.88;1.63;;;;;;;9.30;nan;99308.53;4986126;28;20120;-46
2022/04/07 01:24:02;;;;;;;2.90;1.77;;;;;;;9.26;nan;99302.16;4988854;28;20061;-46
2022/04/07 01:26:31;;;;;;;4.47;1.83;;;;;;;9.23;nan;99301.91;4989674;28;20459;-46
2022/04/07 01:28:59;;;;;;;2.67;1.70;;;;;;;9.22;nan;99309.13;4986418;28;20077;-46
2022/04/07 01:31:24;;;;;;;5.10;2.42;;;;;;;9.16;nan;99312.91;4985585;28;20042;-46
2022/04/07 01:33:50;;;;;;;3.25;1.92;;;;;;;9.12;nan;99301.16;4991106;28;20033;-46
2022/04/07 01:36:17;;;;;;;3.58;2.17;;;;;;;9.08;nan;99305.44;4990345;28;20092;-45
2022/04/07 01:38:44;;;;;;;4.32;1.75;;;;;;;9.04;nan;99299.84;4988490;28;20026;-46
2022/04/07 01:41:10;;;;;;;3.38;2.17;;;;;;;9.02;nan;99298.53;4991471;28;20048;-47
2022/04/07 01:43:38;;;;;;;3.33;1.67;;;;;;;9.00;nan;99303.34;4989800;28;20033;-46
2022/04/07 01:46:04;;;;;;;3.90;1.75;;;;;;;8.98;nan;99294.81;4983567;28;20388;-46
2022/04/07 01:48:30;;;;;;;3.50;1.88;;;;;;;8.95;nan;99300.66;4988962;28;20465;-46
2022/04/07 01:50:56;;;;;;;4.50;2.10;;;;;;;8.90;nan;99298.03;4986482;28;20053;-47
2022/04/07 01:53:22;;;;;;;4.80;2.60;;;;;;;8.89;nan;99296.44;4990185;28;20097;-46
2022/04/07 01:55:49;;;;;;;3.33;2.40;;;;;;;8.87;nan;99290.56;4988056;28;20464;-47
2022/04/07 01:58:16;;;;;;;5.38;2.15;;;;;;;8.86;nan;99287.09;4988678;28;20518;-46
2022/04/07 02:00:42;;;;;;;4.47;1.92;;;;;;;8.88;nan;99298.28;4985449;28;20689;-46
2022/04/07 02:03:11;;;;;;;5.57;2.60;;;;;;;8.90;nan;99292.69;4982910;28;20113;-45
2022/04/07 02:05:37;;;;;;;5.78;2.42;;;;;;;8.91;nan;99289.72;4986104;28;20038;-46
2022/04/07 02:08:03;;;;;;;5.93;2.97;;;;;;;8.91;nan;99283.59;4982364;28;20423;-45
2022/04/07 02:10:30;;;;;;;4.60;2.42;;;;;;;8.90;nan;99287.34;4986370;28;20413;-46
2022/04/07 02:12:56;;;;;;;4.30;2.45;;;;;;;8.90;nan;99282.00;4985655;28;20026;-46
2022/04/07 02:15:25;;;;;;;6.55;2.45;;;;;;;8.88;nan;99276.13;4987421;28;20019;-46
2022/04/07 02:17:50;;;;;;;4.70;2.60;;;;;;;8.89;nan;99275.84;4985420;28;20030;-48
2022/04/07 02:20:16;;;;;;;8.52;2.90;;;;;;;8.87;nan;99270.00;4983852;28;20068;-46
2022/04/07 02:22:42;;;;;;;5.47;2.63;;;;;;;8.86;nan;99270.25;4984548;28;20480;-46
2022/04/07 02:25:08;;;;;;;6.72;2.40;;;;;;;8.85;nan;99274.81;4984939;28;20045;-45
2022/04/07 02:27:37;;;;;;;6.93;2.75;;;;;;;8.83;nan;99278.81;4986745;28;20026;-46
2022/04/07 02:30:11;;;;;;;4.78;2.90;;;;;;;8.79;nan;99276.69;4988699;28;20030;-46
2022/04/07 02:32:37;;;;;;;5.47;2.60;;;;;;;8.82;nan;99274.56;4988058;28;20034;-46
2022/04/07 02:35:03;;;;;;;3.40;2.53;;;;;;;8.84;nan;99267.06;4989292;28;20855;-46
2022/04/07 02:37:29;;;;;;;7.07;2.28;;;;;;;8.85;nan;99266.00;4987454;28;20026;-46
2022/04/07 02:39:55;;;;;;;5.38;2.45;;;;;;;8.86;nan;99270.25;4988134;28;20037;-46
2022/04/07 02:42:21;;;;;;;5.10;2.55;;;;;;;8.87;nan;99261.97;4990137;28;20030;-46
2022/04/07 02:44:46;;;;;;;5.78;2.60;;;;;;;8.89;nan;99259.03;4981654;28;20038;-45
2022/04/07 02:47:12;;;;;;;5.80;3.35;;;;;;;8.90;nan;99258.75;4988091;28;20038;-46
2022/04/07 02:49:41;;;;;;;5.72;2.50;;;;;;;8.92;nan;99263.81;4986158;28;20125;-46
2022/04/07 02:52:10;;;;;;;8.30;2.83;;;;;;;8.92;nan;99261.94;4985934;28;20429;-45
2022/04/07 02:54:37;;;;;;;4.32;2.30;;;;;;;8.95;nan;99249.91;4981954;28;20066;-45
2022/04/07 02:57:03;;;;;;;6.07;2.67;;;;;;;8.95;nan;99253.38;4983061;28;20029;-46
2022/04/07 02:59:29;;;;;;;5.30;2.42;;;;;;;8.95;nan;99249.91;4989348;28;20040;-45
2022/04/07 03:01:56;;;;;;;6.60;2.50;;;;;;;8.95;nan;99241.91;4985748;28;20022;-46
2022/04/07 03:04:24;;;;;;;3.97;2.53;;;;;;;8.97;nan;99237.09;4985474;28;20030;-46
2022/04/07 03:06:51;;;;;;;6.95;2.65;;;;;;;8.97;nan;99235.22;4985706;28;21494;-46
2022/04/07 03:09:18;;;;;;;4.15;2.40;;;;;;;8.99;nan;99232.28;4985662;28;20495;-46
2022/04/07 03:11:46;;;;;;;6.10;2.80;;;;;;;8.99;nan;99227.75;4985298;28;20030;-46
2022/04/07 03:14:12;;;;;;;5.22;2.35;;;;;;;9.02;nan;99221.06;4981217;28;20030;-46
2022/04/07 03:16:38;;;;;;;6.85;3.03;;;;;;;9.04;nan;99219.69;4984739;28;20060;-46
2022/04/07 03:19:03;;;;;;;7.72;3.50;;;;;;;9.06;nan;99216.75;4981682;28;20058;-47
2022/04/07 03:21:29;;;;;;;8.20;2.47;;;;;;;9.08;nan;99206.59;4988128;28;20034;-46
2022/04/07 03:23:54;;;;;;;4.38;2.83;;;;;;;9.11;nan;99206.03;4986558;28;20453;-46
2022/04/07 03:26:20;;;;;;;4.97;3.05;;;;;;;9.11;nan;99208.69;4982812;28;20026;-46
2022/04/07 03:28:45;;;;;;;3.97;3.08;;;;;;;9.12;nan;99207.63;4986821;28;20510;-45
2022/04/07 03:31:11;;;;;;;4.97;2.50;;;;;;;9.12;nan;99210.28;4983460;28;20034;-46
2022/04/07 03:33:36;;;;;;;2.95;2.00;;;;;;;9.12;nan;99210.28;4984303;28;20027;-46
2022/04/07 03:36:02;;;;;;;7.13;2.60;;;;;;;9.14;nan;99212.69;4985419;28;20476;-46
2022/04/07 03:38:28;;;;;;;4.75;2.60;;;;;;;9.15;nan;99203.59;4983125;28;20392;-46
2022/04/07 03:40:54;;;;;;;8.25;2.90;;;;;;;9.16;nan;99200.69;4985542;28;20034;-46
2022/04/07 03:43:19;;;;;;;5.40;2.70;;;;;;;9.17;nan;99202.28;4987572;28;20022;-47
2022/04/07 03:45:45;;;;;;;4.40;2.70;;;;;;;9.17;nan;99188.13;4983912;28;20421;-46
2022/04/07 03:48:10;;;;;;;7.97;3.33;;;;;;;9.17;nan;99196.94;5047240;23;20127;-49
2022/04/07 03:50:36;;;;;;;5.38;2.72;;;;;;;9.18;nan;99189.72;5042738;28;20033;-47
2022/04/07 03:53:02;;;;;;;6.03;2.92;;;;;;;9.16;nan;99187.31;5043644;28;20033;-48
2022/04/07 03:55:27;;;;;;;7.35;3.92;;;;;;;9.18;nan;99192.38;5044088;28;20025;-47
2022/04/07 03:57:53;;;;;;;5.25;3.53;;;;;;;9.18;nan;99174.47;5026880;28;20475;-49
2022/04/07 04:00:19;;;;;;;5.55;2.85;;;;;;;9.15;nan;99176.88;5021874;28;20026;-49
2022/04/07 04:02:45;;;;;;;6.72;3.10;;;;;;;9.13;nan;99174.50;5021146;28;20028;-46
2022/04/07 04:05:11;;;;;;;5.55;3.20;;;;;;;9.13;nan;99173.69;5020345;28;20029;-46
2022/04/07 04:07:37;;;;;;;7.38;3.60;;;;;;;9.11;nan;99168.63;5022376;28;20036;-46
2022/04/07 04:10:03;;;;;;;6.05;3.28;;;;;;;9.12;nan;99166.75;5020844;28;20134;-46
2022/04/07 04:12:29;;;;;;;6.05;3.30;;;;;;;9.08;nan;99153.94;5023086;28;20037;-48
2022/04/07 04:14:55;;;;;;;9.38;3.35;;;;;;;9.07;nan;99152.34;5027253;28;20086;-45
2022/04/07 04:17:20;;;;;;;6.43;3.38;;;;;;;9.07;nan;99154.22;5022381;28;20022;-46
2022/04/07 04:19:46;;;;;;;6.25;3.67;;;;;;;9.04;nan;99142.22;5017798;28;20033;-49
2022/04/07 04:22:11;;;;;;;6.13;3.60;;;;;;;9.04;nan;99134.22;5019620;28;20722;-45
2022/04/07 04:24:37;;;;;;;4.38;3.03;;;;;;;9.04;nan;99131.53;5021342;28;20038;-49
2022/04/07 04:27:02;;;;;;;7.55;3.80;;;;;;;9.05;nan;99140.34;5019219;28;20032;-47
2022/04/07 04:29:28;;;;;;;6.50;4.25;;;;;;;9.04;nan;99131.53;5022046;28;20581;-48
2022/04/07 04:31:53;;;;;;;5.70;3.83;;;;;;;9.05;nan;99137.69;5021882;28;20048;-47
2022/04/07 04:34:19;;;;;;;7.75;4.13;;;;;;;9.04;nan;99128.06;5021742;28;20041;-48
2022/04/07 04:36:44;;;;;;;6.35;3.50;;;;;;;9.03;nan;99132.63;5022825;28;20041;-47
2022/04/07 04:39:10;;;;;;;6.72;3.42;;;;;;;9.04;nan;99128.06;5021918;28;20053;-46
2022/04/07 04:41:35;;;;;;;9.63;3.08;;;;;;;9.03;nan;99135.28;5022491;28;20474;-48
2022/04/07 04:44:02;;;;;;;5.10;3.35;;;;;;;9.03;nan;99129.16;5022315;28;20029;-47
2022/04/07 04:46:27;;;;;;;4.32;3.20;;;;;;;9.04;nan;99128.06;5019979;28;20048;-48
2022/04/07 04:48:54;;;;;;;6.03;3.47;;;;;;;9.05;nan;99127.00;5022927;28;20022;-50
2022/04/07 04:51:19;;;;;;;7.47;4.18;;;;;;;9.07;nan;99117.63;5024680;28;20367;-49
2022/04/07 04:53:45;;;;;;;7.65;4.18;;;;;;;9.08;nan;99113.88;5026334;28;20029;-49
2022/04/07 04:56:10;;;;;;;8.20;4.57;;;;;;;9.12;nan;99111.44;5024162;28;20034;-48
2022/04/07 04:58:36;;;;;;;5.18;3.33;;;;;;;9.15;nan;99110.88;5018696;28;20025;-46
2022/04/07 05:01:01;;;;;;;7.88;4.05;;;;;;;9.19;nan;99103.91;5021230;28;20033;-50
2022/04/07 05:03:27;;;;;;;6.90;4.00;;;;;;;9.21;nan;99091.06;5019817;28;20438;-46
2022/04/07 05:05:52;;;;;;;7.88;3.58;;;;;;;9.25;nan;99086.75;5036063;28;20112;-46
2022/04/07 05:08:19;;;;;;;5.00;3.17;;;;;;;9.28;nan;99075.50;5019237;28;20026;-50
2022/04/07 05:10:44;;;;;;;8.00;3.47;;;;;;;9.29;nan;99079.78;5022511;28;20033;-50
2022/04/07 05:13:10;;;;;;;7.43;3.83;;;;;;;9.32;nan;99075.75;5018810;28;20033;-47
2022/04/07 05:15:37;;;;;;;5.75;3.70;;;;;;;9.33;nan;99077.34;5020285;28;20459;-51
2022/04/07 05:18:03;;;;;;;6.22;3.67;;;;;;;9.35;nan;99081.34;5015645;28;20376;-48
2022/04/07 05:20:29;;;;;;;6.47;3.30;;;;;;;9.36;nan;99076.81;5014989;28;20034;-46
2022/04/07 05:22:54;;;;;;;4.75;3.05;;;;;;;9.37;nan;99076.50;5011522;28;20022;-48
2022/04/07 05:25:20;;;;;;;5.15;3.60;;;;;;;9.37;nan;99067.69;5012505;28;20463;-48
2022/04/07 05:27:45;;;;;;;8.65;3.55;;;;;;;9.37;nan;99062.34;5013040;28;20287;-46
2022/04/07 05:30:15;;;;;;;8.75;4.10;;;;;;;9.36;nan;99058.88;5012755;28;20045;-48
2022/04/07 05:32:40;;;;;;;6.28;3.35;;;;;;;9.39;nan;99062.88;5014015;28;20510;-48
2022/04/07 05:35:06;;;;;;;6.72;3.35;;;;;;;9.38;nan;99054.06;5011249;28;20057;-50
2022/04/07 05:37:32;;;;;;;6.55;3.85;;;;;;;9.41;nan;99060.72;5014618;28;20048;-49
2022/04/07 05:39:57;;;;;;;6.50;3.58;;;;;;;9.41;nan;99070.59;5015990;28;20034;-46
2022/04/07 05:42:23;;;;;;;6.70;3.85;;;;;;;9.42;nan;99072.19;5017107;28;20028;-49
2022/04/07 05:44:48;;;;;;;8.65;3.85;;;;;;;9.40;nan;99067.13;5016064;28;20463;-45
2022/04/07 05:47:14;;;;;;;5.38;3.28;;;;;;;9.40;nan;99061.78;5017681;28;20060;-49
2022/04/07 05:49:39;;;;;;;8.60;3.65;;;;;;;9.41;nan;99068.72;5017143;28;20036;-51
2022/04/07 05:52:05;;;;;;;8.60;3.53;;;;;;;9.42;nan;99056.16;5015990;28;20438;-50
2022/04/07 05:54:32;;;;;;;5.70;3.83;;;;;;;9.43;nan;99047.06;5016371;28;20032;-49
2022/04/07 05:56:57;;;;;;;4.32;2.88;;;;;;;9.44;nan;99059.34;5015380;28;20056;-46
2022/04/07 05:59:23;;;;;;;6.28;3.40;;;;;;;9.45;nan;99047.56;5015914;28;20053;-46
2022/04/07 06:01:49;;;;;;;4.57;3.35;;;;;;;9.45;nan;99045.69;5014711;28;20030;-46
2022/04/07 06:04:14;;;;;;;6.35;3.70;;;;;;;9.47;nan;99040.06;5016696;28;20105;-48
2022/04/07 06:06:40;;;;;;;8.10;3.53;;;;;;;9.48;nan;99034.44;5016867;28;20026;-46
2022/04/07 06:09:06;;;;;;;7.50;3.63;;;;;;;9.51;nan;99030.41;5014626;28;20034;-53
2022/04/07 06:11:32;;;;;;;9.88;3.97;;;;;;;9.52;nan;99040.03;5016708;28;20402;-49
2022/04/07 06:13:58;;;;;;;5.93;3.17;;;;;;;9.53;nan;99031.72;5016947;28;20025;-46
2022/04/07 06:16:23;;;;;;;6.10;3.47;;;;;;;9.55;nan;99039.47;5017105;28;20018;-46
2022/04/07 06:18:49;;;;;;;7.20;3.70;;;;;;;9.56;nan;99027.69;5017482;28;20026;-49
2022/04/07 06:21:14;;;;;;;8.07;3.67;;;;;;;9.57;nan;99029.28;5014445;28;20116;-48
2022/04/07 06:23:40;;;;;;;4.32;3.30;;;;;;;9.58;nan;99026.31;5016319;28;20104;-46
2022/04/07 06:26:06;;;;;;;5.18;2.95;;;;;;;9.58;nan;99014.84;5014728;28;20052;-50
2022/04/07 06:28:32;;;;;;;7.28;3.50;;;;;;;9.59;nan;99008.41;5016326;28;20126;-48
2022/04/07 06:30:57;;;;;;;4.80;2.85;;;;;;;9.61;nan;99003.56;5015668;28;20040;-46
2022/04/07 06:33:23;;;;;;;4.32;2.90;;;;;;;9.66;nan;98998.16;5015507;28;20071;-47
2022/04/07 06:35:52;;;;;;;5.47;2.83;;;;;;;9.69;nan;98992.22;5014486;28;20053;-46
2022/04/07 06:38:18;;;;;;;5.18;3.33;;;;;;;9.75;nan;98988.44;5014257;28;20022;-49
2022/04/07 06:40:44;;;;;;;4.45;2.70;;;;;;;9.80;nan;98991.06;5014722;28;20022;-47
2022/04/07 06:43:10;;;;;;;4.95;2.97;;;;;;;9.87;nan;98996.03;5013825;28;20071;-50
2022/04/07 06:45:36;;;;;;;5.22;2.80;;;;;;;9.92;nan;98993.31;5013994;28;20029;-49
2022/04/07 06:48:01;;;;;;;4.50;3.17;;;;;;;9.97;nan;98980.69;5014856;28;20037;-46
2022/04/07 06:50:27;;;;;;;6.00;2.97;;;;;;;10.00;nan;98980.09;5014189;28;20451;-47
2022/04/07 06:52:54;;;;;;;4.53;2.90;;;;;;;10.05;nan;98970.41;5014102;28;20026;-46
2022/04/07 06:55:20;;;;;;;6.68;3.33;;;;;;;10.09;nan;98971.44;5015221;28;20060;-47
2022/04/07 06:58:02;;;;;;;5.20;2.75;;;;;;;10.12;nan;98965.50;5013979;28;20053;-49
2022/04/07 07:00:34;;;;;;;6.30;2.78;;;;;;;10.17;nan;98958.22;5016624;28;20115;-46
2022/04/07 07:03:01;;;;;;;5.50;3.03;;;;;;;10.23;nan;98950.94;5016531;28;20033;-46
2022/04/07 07:05:29;;;;;;;4.65;2.65;;;;;;;10.30;nan;98959.41;5013119;28;20560;-48
2022/04/07 07:07:55;;;;;;;5.35;2.88;;;;;;;10.38;nan;98953.38;5014936;28;20092;-48
2022/04/07 07:10:30;;;;;;;4.43;2.50;;;;;;;10.45;nan;98950.38;5015597;28;20464;-46
2022/04/07 07:12:55;;;;;;;5.32;2.83;;;;;;;10.55;nan;98942.16;5016422;28;20033;-46
2022/04/07 07:15:21;;;;;;;4.13;2.85;;;;;;;10.63;nan;98930.00;5014651;28;20048;-48
2022/04/07 07:17:47;;;;;;;4.40;2.42;;;;;;;10.68;nan;98925.34;5015045;28;20049;-47
2022/04/07 07:20:13;;;;;;;3.65;2.55;;;;;;;10.72;nan;98904.13;5015179;28;20037;-50
2022/04/07 07:22:40;;;;;;;4.53;2.45;;;;;;;10.83;nan;98908.25;5015943;28;20025;-46
2022/04/07 07:25:06;;;;;;;3.92;2.50;;;;;;;10.92;nan;98903.78;5017927;28;20025;-52
2022/04/07 07:27:50;;;;;;;5.28;2.58;;;;;;;10.97;nan;98895.66;5014349;28;20025;-46
2022/04/07 07:30:17;;;;;;;6.47;2.78;;;;;;;11.08;nan;98894.38;5013890;28;20030;-49
2022/04/07 07:32:47;;;;;;;3.90;2.08;;;;;;;11.13;nan;98897.00;5016594;28;20087;-47
2022/04/07 07:35:13;;;;;;;4.88;2.47;;;;;;;11.18;nan;98883.47;5012983;28;20037;-51
2022/04/07 07:37:52;;;;;;;4.50;2.35;;;;;;;11.25;nan;98890.31;5013368;28;20053;-48
2022/04/07 07:40:20;;;;;;;2.67;2.20;;;;;;;11.33;nan;98886.97;5014713;28;20100;-47
2022/04/07 07:42:47;;;;;;;3.33;2.03;;;;;;;11.35;nan;98879.41;5015788;28;20025;-45
2022/04/07 07:45:13;;;;;;;4.70;2.15;;;;;;;11.38;nan;98873.44;5013826;28;20169;-48
2022/04/07 07:47:38;;;;;;;2.92;2.28;;;;;;;11.41;nan;98876.31;5013550;28;20363;-48
2022/04/07 07:50:05;;;;;;;2.58;2.10;;;;;;;11.44;nan;98861.53;5012039;28;20025;-49
2022/04/07 07:52:31;;;;;;;5.35;2.85;;;;;;;11.44;nan;98856.94;5015515;28;20025;-49
2022/04/07 07:54:56;;;;;;;3.30;2.25;;;;;;;11.47;nan;98877.81;5017412;28;21683;-46
2022/04/07 07:57:22;;;;;;;4.78;2.13;;;;;;;11.55;nan;98854.88;5014202;28;20022;-51
2022/04/07 07:59:49;;;;;;;3.45;2.38;;;;;;;11.64;nan;98861.09;5013954;28;20022;-49
2022/04/07 08:02:14;;;;;;;4.45;2.15;;;;;;;11.75;nan;98842.91;5017177;28;20032;-50
2022/04/07 08:04:40;;;;;;;2.13;1.85;;;;;;;11.85;nan;98847.28;5015544;28;20105;-46
2022/04/07 08:07:05;;;;;;;3.80;2.00;;;;;;;11.94;nan;98829.38;5014853;28;20029;-46
2022/04/07 08:09:31;;;;;;;4.68;2.20;;;;;;;12.02;nan;98834.00;5015857;28;20021;-47
2022/04/07 08:11:56;;;;;;;2.42;1.63;;;;;;;12.15;nan;98827.78;5014082;28;20158;-48
2022/04/07 08:14:22;;;;;;;4.03;1.92;;;;;;;12.28;nan;98829.63;5016492;28;20030;-47
2022/04/07 08:16:48;;;;;;;3.60;1.60;;;;;;;12.39;nan;98814.06;5013609;28;20496;-47
2022/04/07 08:19:13;;;;;;;5.25;2.10;;;;;;;12.48;nan;98814.13;5014152;28;20026;-49
2022/04/07 08:21:39;;;;;;;2.88;1.67;;;;;;;12.57;nan;98818.44;5014870;28;20038;-51
2022/04/07 08:24:05;;;;;;;3.70;2.20;;;;;;;12.62;nan;98820.22;5017588;28;20021;-47
2022/04/07 08:26:30;;;;;;;2.63;2.10;;;;;;;12.63;nan;98811.03;5013147;28;20090;-50
2022/04/07 08:28:56;;;;;;;3.47;1.95;;;;;;;12.57;nan;98809.59;5014126;28;20071;-47
2022/04/07 08:31:23;;;;;;;2.92;2.13;;;;;;;12.53;nan;98816.66;5013509;28;20053;-50
2022/04/07 08:33:48;;;;;;;4.95;2.40;;;;;;;12.56;nan;98814.16;5011582;28;20034;-46
2022/04/07 08:36:14;;;;;;;4.13;1.90;;;;;;;12.71;nan;98812.97;5012514;28;20018;-48
2022/04/07 08:38:39;;;;;;;2.92;2.00;;;;;;;12.86;nan;98809.09;5013110;28;20034;-46
2022/04/07 08:41:09;;;;;;;2.13;1.85;;;;;;;12.98;nan;98801.25;5012311;28;20033;-46
2022/04/07 08:43:38;;;;;;;3.65;1.67;;;;;;;13.11;nan;98799.56;5013841;28;20036;-47
2022/04/07 08:46:08;;;;;;;3.00;1.88;;;;;;;13.28;nan;98780.78;5012398;28;20108;-47
2022/04/07 08:48:40;;;;;;;4.28;2.10;;;;;;;13.38;nan;98761.66;5014399;28;20033;-46
2022/04/07 08:51:06;;;;;;;2.70;1.90;;;;;;;13.42;nan;98759.94;5011529;28;20036;-46
2022/04/07 08:53:33;;;;;;;3.03;1.90;;;;;;;13.42;nan;98770.69;5012808;28;20030;-47
2022/04/07 08:56:01;;;;;;;5.82;1.90;;;;;;;13.47;nan;98767.88;5012271;28;20036;-48
2022/04/07 08:58:27;;;;;;;3.00;1.80;;;;;;;13.61;nan;98767.69;5013220;28;20106;-47
2022/04/07 09:00:52;;;;;;;3.97;1.90;;;;;;;13.75;nan;98781.00;5011754;28;20402;-49
2022/04/07 09:03:18;;;;;;;1.70;1.58;;;;;;;13.80;nan;98773.56;5013115;28;20018;-51
2022/04/07 09:05:54;;;;;;;2.38;1.80;;;;;;;13.71;nan;98753.94;5012134;28;20032;-47
2022/04/07 09:08:19;;;;;;;2.78;1.80;;;;;;;13.71;nan;98745.06;5013238;28;20025;-47
2022/04/07 09:10:54;;;;;;;4.07;1.50;;;;;;;13.68;nan;98738.44;5012540;28;20029;-48
2022/04/07 09:13:20;;;;;;;2.13;1.30;;;;;;;13.69;nan;98749.97;5015075;28;20040;-51
2022/04/07 09:15:47;;;;;;;3.65;1.63;;;;;;;13.71;nan;98734.31;5015292;28;20026;-48
2022/04/07 09:18:12;;;;;;;2.47;1.33;;;;;;;13.71;nan;98724.34;5015494;28;20018;-50
2022/04/07 09:20:44;;;;;;;2.92;1.20;;;;;;;13.69;nan;98717.69;5016195;28;20534;-46
2022/04/07 09:23:13;;;;;;;1.23;1.02;;;;;;;13.79;nan;98718.13;5016217;28;20029;-49
2022/04/07 09:25:44;;;;;;;3.58;1.50;;;;;;;13.80;nan;98708.97;5017756;28;20548;-49
2022/04/07 09:28:11;;;;;;;1.73;1.10;;;;;;;13.83;nan;98696.78;5017140;28;20466;-51
2022/04/07 09:30:41;;;;;;;3.22;1.25;;;;;;;13.87;nan;98687.75;5017568;28;20721;-49
2022/04/07 09:33:20;;;;;;;1.63;0.90;;;;;;;13.90;nan;98689.00;5023533;28;20044;-51
2022/04/07 09:35:59;;;;;;;2.08;1.23;;;;;;;13.96;nan;98676.94;5026109;28;20021;-47
2022/04/07 09:38:25;;;;;;;3.40;1.27;;;;;;;14.15;nan;98671.97;5022308;28;20033;-47
2022/04/07 09:40:51;;;;;;;5.20;1.10;;;;;;;14.21;nan;98670.72;5021049;28;20049;-48
2022/04/07 09:43:17;;;;;;;1.67;0.90;;;;;;;14.25;nan;98667.38;5016032;28;20500;-46
2022/04/07 09:45:45;;;;;;;1.77;1.23;;;;;;;14.33;nan;98661.94;5018307;28;20367;-46
2022/04/07 09:48:17;;;;;;;1.98;1.10;;;;;;;14.36;nan;98665.88;5024085;28;20033;-46
2022/04/07 09:51:02;;;;;;;4.57;1.13;;;;;;;14.26;nan;98652.78;5023682;28;20064;-46
2022/04/07 09:53:38;;;;;;;2.92;1.08;;;;;;;14.26;nan;98650.09;5026728;28;20038;-46
2022/04/07 09:56:05;;;;;;;3.58;1.40;;;;;;;14.22;nan;98644.56;5037811;28;20025;-45
2022/04/07 09:58:32;;;;;;;2.65;1.30;;;;;;;14.14;nan;98640.78;5017148;28;20048;-46
2022/04/07 10:01:01;;;;;;;3.03;1.17;;;;;;;14.15;nan;98634.28;5015359;28;20048;-46
2022/04/07 10:03:28;;;;;;;5.47;1.38;;;;;;;14.16;nan;98627.00;5022856;28;20029;-45
2022/04/07 10:05:55;;;;;;;1.80;1.00;;;;;;;14.10;nan;98610.22;5028308;28;20083;-46
2022/04/07 10:08:21;;;;;;;3.45;1.10;;;;;;;14.05;nan;98617.72;5019039;28;20540;-45
2022/04/07 10:10:47;;;;;;;1.83;1.08;;;;;;;14.07;nan;98618.16;5016984;28;20021;-46
2022/04/07 10:13:14;;;;;;;1.83;1.25;;;;;;;14.04;nan;98619.59;5022902;28;20029;-46
2022/04/07 10:15:40;;;;;;;2.25;1.00;;;;;;;14.04;nan;98602.66;5015387;28;20032;-45
2022/04/07 10:18:14;;;;;;;3.03;1.00;;;;;;;14.04;nan;98595.38;5018606;28;20025;-45
2022/04/07 10:20:45;;;;;;;2.20;0.93;;;;;;;14.07;nan;98593.94;5016345;28;20041;-45
2022/04/07 10:23:16;;;;;;;1.20;1.10;;;;;;;14.09;nan;98592.50;5013839;28;20022;-46
2022/04/07 10:25:45;;;;;;;1.15;1.05;;;;;;;14.14;nan;98583.44;5014718;28;20037;-45
2022/04/07 10:28:11;;;;;;;1.10;1.00;;;;;;;14.20;nan;98577.56;5020043;28;20112;-44
2022/04/07 10:30:51;;;;;;;2.92;1.20;;;;;;;14.26;nan;98563.91;5021445;28;20034;-45
2022/04/07 10:33:38;;;;;;;1.35;0.98;;;;;;;14.29;nan;98563.25;5016367;28;20022;-45
2022/04/07 10:36:16;;;;;;;1.58;0.80;;;;;;;14.37;nan;98538.19;5013069;28;20037;-45
2022/04/07 10:38:44;;;;;;;3.92;0.77;;;;;;;14.44;nan;98530.41;5020163;28;20026;-45
2022/04/07 10:41:10;;;;;;;2.22;0.70;;;;;;;14.44;nan;98514.22;5017675;28;20132;-45
2022/04/07 10:43:40;;;;;;;1.23;0.70;;;;;;;14.49;nan;98519.41;5017781;28;20068;-45
2022/04/07 10:46:18;;;;;;;1.08;0.60;;;;;;;14.48;nan;98510.53;5011916;28;20026;-45
2022/04/07 10:48:51;;;;;;;0.85;0.60;;;;;;;14.54;nan;98505.75;5017806;28;20033;-45
2022/04/07 10:51:18;;;;;;;1.90;0.80;;;;;;;14.55;nan;98501.16;5011853;28;20391;-47
2022/04/07 10:53:53;;;;;;;3.20;0.57;;;;;;;14.43;nan;98493.75;5015765;28;20030;-46
2022/04/07 10:56:31;;;;;;;2.15;0.70;;;;;;;14.39;nan;98503.63;5018975;28;20079;-46
2022/04/07 10:59:10;;;;;;;1.00;0.65;;;;;;;14.36;nan;98483.53;5017514;28;20037;-45
2022/04/07 11:01:38;;;;;;;0.70;0.60;;;;;;;14.38;nan;98485.88;5012719;28;20045;-45
2022/04/07 11:04:16;;;;;;;1.67;0.60;;;;;;;14.34;nan;98471.47;5016210;28;20076;-45
2022/04/07 11:07:15;;;;;;;0.40;0.40;;;;;;;14.39;nan;98453.22;5019388;28;20030;-46
2022/04/07 11:09:53;;;;;;;0.60;0.60;;;;;;;14.50;nan;98446.34;5018224;28;20087;-45
2022/04/07 11:12:29;;;;;;;2.30;0.45;;;;;;;14.57;nan;98432.34;5015103;28;20032;-44
2022/04/07 11:15:16;;;;;;;2.28;0.70;;;;;;;14.68;nan;98436.19;5010824;28;20036;-45
2022/04/07 11:17:42;;;;;;;0.95;0.43;;;;;;;14.80;nan;98440.84;5015880;28;20075;-45
2022/04/07 11:20:22;;;;;;;5.00;0.45;;;;;;;14.74;nan;98423.31;5016160;28;20030;-45
2022/04/07 11:22:56;;;;;;;1.42;0.70;;;;;;;14.74;nan;98415.25;5015833;28;20036;-46
2022/04/07 11:25:28;;;;;;;1.38;0.40;;;;;;;14.67;nan;98407.66;5011274;28;20034;-45
2022/04/07 11:28:19;;;;;;;4.28;0.50;;;;;;;14.62;nan;98401.72;5016589;28;20037;-45
2022/04/07 11:31:03;;;;;;;3.08;0.40;;;;;;;14.55;nan;98388.78;5011594;28;20053;-46
2022/04/07 11:33:29;;;;;;;1.45;0.40;;;;;;;14.52;nan;98403.69;5019243;28;20033;-46
2022/04/07 11:36:00;;;;;;;2.72;0.75;;;;;;;14.37;nan;98398.91;5015036;28;20035;-46
2022/04/07 11:38:32;;;;;;;1.42;0.40;;;;;;;14.27;nan;98382.34;5022601;28;20033;-46
2022/04/07 11:41:05;;;;;;;2.00;0.60;;;;;;;14.12;nan;98381.03;5013009;28;20029;-45
2022/04/07 11:43:32;;;;;;;3.72;0.50;;;;;;;14.00;nan;98389.00;5013306;28;20029;-45
2022/04/07 11:45:58;;;;;;;0.63;0.50;;;;;;;13.92;nan;98396.03;5012945;28;20087;-46
2022/04/07 11:48:29;;;;;;;1.65;0.63;;;;;;;13.84;nan;98392.31;5012760;28;20056;-46
2022/04/07 11:51:00;;;;;;;1.38;0.57;;;;;;;13.74;nan;98373.84;5012020;28;20041;-45
2022/04/07 11:53:29;;;;;;;1.65;0.70;;;;;;;13.68;nan;98367.06;5012405;28;20566;-47
2022/04/07 11:56:10;;;;;;;1.52;0.73;;;;;;;13.62;nan;98357.59;5014574;28;20051;-46
2022/04/07 11:58:36;;;;;;;0.68;0.63;;;;;;;13.57;nan;98347.81;5020406;28;20083;-46